Time;durP1;ratioP1;P1;durP2;ratioP2;P2;SDS_P1;SDS_P2;PMS_P1;PMS_P2;Temp;Humidity;BMP_temperature;BMP_pressure;BME280_temperature;BME280_humidity;BME280_pressure;Samples;Min_cycle;Max_cycle;Signal;HPM_P1;HPM_P2
2023/09/24 00:01:35;;;;;;;;;;;;;;;20.37;49.20;101619.13;4852531;29;6331;-61
2023/09/24 00:04:01;;;;;;;;;;;;;;;20.34;49.10;101631.91;4855041;29;2346;-61
2023/09/24 00:06:28;;;;;;;;;;;;;;;20.33;49.35;101636.13;4855692;29;2393;-61
2023/09/24 00:08:54;;;;;;;;;;;;;;;20.33;49.00;101627.50;4855917;29;2262;-61
2023/09/24 00:11:21;;;;;;;;;;;;;;;20.31;49.30;101641.78;4852675;29;2452;-61
2023/09/24 00:13:47;;;;;;;;;;;;;;;20.29;49.11;101635.91;4851778;29;2411;-61
2023/09/24 00:16:14;;;;;;;;;;;;;;;20.26;49.24;101643.66;4850743;29;2570;-61
2023/09/24 00:18:41;;;;;;;;;;;;;;;20.26;48.86;101642.91;4853205;29;2415;-61
2023/09/24 00:21:07;;;;;;;;;;;;;;;20.27;48.90;101647.28;4855336;29;2388;-61
2023/09/24 00:23:34;;;;;;;;;;;;;;;20.27;49.12;101655.91;4854191;29;2270;-61
2023/09/24 00:26:00;;;;;;;;;;;;;;;20.26;48.88;101648.66;4853166;29;2428;-61
2023/09/24 00:28:27;;;;;;;;;;;;;;;20.25;48.82;101658.69;4853667;29;2433;-61
2023/09/24 00:30:54;;;;;;;;;;;;;;;20.22;48.97;101662.78;4851651;29;6427;-61
2023/09/24 00:33:21;;;;;;;;;;;;;;;20.17;49.08;101658.94;4837511;29;2331;-61
2023/09/24 00:35:48;;;;;;;;;;;;;;;20.19;48.88;101661.19;4853599;29;2436;-61
2023/09/24 00:38:14;;;;;;;;;;;;;;;20.19;48.95;101672.69;4854362;29;2364;-61
2023/09/24 00:40:41;;;;;;;;;;;;;;;20.17;48.94;101670.44;4838826;29;2401;-61
2023/09/24 00:43:23;;;;;;;;;;;;;;;20.17;48.84;101672.56;4853051;29;2353;-60
2023/09/24 00:45:50;;;;;;;;;;;;;;;20.17;48.63;101681.94;4855793;29;2433;-60
2023/09/24 00:48:16;;;;;;;;;;;;;;;20.17;48.63;101686.94;4857937;29;2358;-60
2023/09/24 00:50:43;;;;;;;;;;;;;;;20.15;48.70;101689.69;4848309;29;2298;-60
2023/09/24 00:53:10;;;;;;;;;;;;;;;20.15;48.64;101687.56;4840421;29;2281;-60
2023/09/24 00:55:36;;;;;;;;;;;;;;;20.14;48.78;101683.19;4840723;29;2550;-60
2023/09/24 00:58:03;;;;;;;;;;;;;;;20.13;48.69;101686.69;4856459;29;2307;-60
2023/09/24 01:00:34;;;;;;;;;;;;;;;20.12;48.67;101685.22;4840716;29;6226;-60
2023/09/24 01:03:00;;;;;;;;;;;;;;;20.12;48.66;101679.47;4840412;29;2315;-61
2023/09/24 01:05:27;;;;;;;;;;;;;;;20.11;48.65;101695.19;4846737;29;2433;-61
2023/09/24 01:07:54;;;;;;;;;;;;;;;20.08;48.63;101689.31;4854862;29;2499;-61
2023/09/24 01:10:25;;;;;;;;;;;;;;;20.08;48.50;101697.94;4857715;29;2292;-61
2023/09/24 01:12:58;;;;;;;;;;;;;;;20.06;48.44;101694.94;4857415;29;2333;-61
2023/09/24 01:15:25;;;;;;;;;;;;;;;20.06;48.31;101699.94;4857448;29;2448;-61
2023/09/24 01:17:52;;;;;;;;;;;;;;;20.07;48.30;101701.47;4857095;29;2413;-61
2023/09/24 01:20:21;;;;;;;;;;;;;;;20.06;48.41;101703.56;4853469;29;2341;-61
2023/09/24 01:22:50;;;;;;;;;;;;;;;20.04;48.32;101708.44;4855272;29;2382;-61
2023/09/24 01:25:19;;;;;;;;;;;;;;;20.04;48.31;101714.97;4859009;29;2210;-61
2023/09/24 01:27:46;;;;;;;;;;;;;;;20.03;48.39;101709.84;4854102;29;2455;-61
2023/09/24 01:30:15;;;;;;;;;;;;;;;20.02;48.40;101711.97;4850911;29;6784;-61
2023/09/24 01:32:42;;;;;;;;;;;;;;;20.04;48.17;101719.94;4855490;29;2428;-61
2023/09/24 01:35:09;;;;;;;;;;;;;;;20.02;48.30;101717.72;4857329;29;2387;-60
2023/09/24 01:37:35;;;;;;;;;;;;;;;20.01;48.17;101718.34;4839754;29;2394;-61
2023/09/24 01:40:09;;;;;;;;;;;;;;;20.01;48.04;101719.06;4854902;29;2295;-60
2023/09/24 01:42:36;;;;;;;;;;;;;;;19.99;48.21;101721.81;4855072;29;2501;-61
2023/09/24 01:45:03;;;;;;;;;;;;;;;19.98;47.96;101720.34;4856183;29;2468;-61
2023/09/24 01:47:30;;;;;;;;;;;;;;;19.98;47.93;101725.34;4855931;29;2508;-61
2023/09/24 01:49:56;;;;;;;;;;;;;;;19.97;47.90;101723.81;4837676;29;2278;-61
2023/09/24 01:52:23;;;;;;;;;;;;;;;19.96;47.95;101730.97;4856542;29;2269;-62
2023/09/24 01:54:49;;;;;;;;;;;;;;;19.94;48.03;101722.97;4855534;29;2535;-64
2023/09/24 01:57:16;;;;;;;;;;;;;;;19.93;48.01;101735.84;4853901;29;2455;-64
2023/09/24 01:59:42;;;;;;;;;;;;;;;19.90;47.85;101733.44;4840072;29;2640;-64
2023/09/24 02:02:09;;;;;;;;;;;;;;;19.90;47.92;101739.19;4852811;29;6105;-64
2023/09/24 02:04:37;;;;;;;;;;;;;;;19.88;48.15;101745.56;4855226;29;2306;-64
2023/09/24 02:07:04;;;;;;;;;;;;;;;19.88;48.04;101743.47;4853590;29;2464;-64
2023/09/24 02:09:32;;;;;;;;;;;;;;;19.89;47.83;101747.09;4853696;29;2312;-64
2023/09/24 02:11:58;;;;;;;;;;;;;;;19.88;48.04;101757.06;4855862;29;2277;-63
2023/09/24 02:14:24;;;;;;;;;;;;;;;19.86;47.98;101742.59;4854296;29;2330;-63
2023/09/24 02:16:51;;;;;;;;;;;;;;;19.86;47.95;101754.84;4855365;29;2451;-63
2023/09/24 02:19:17;;;;;;;;;;;;;;;19.85;47.93;101759.06;4854687;29;2320;-64
2023/09/24 02:21:44;;;;;;;;;;;;;;;19.85;47.96;101759.06;4855643;29;2255;-64
2023/09/24 02:24:11;;;;;;;;;;;;;;;19.84;48.06;101759.69;4856174;29;2475;-64
2023/09/24 02:26:38;;;;;;;;;;;;;;;19.83;48.05;101769.69;4837030;29;2248;-64
2023/09/24 02:29:05;;;;;;;;;;;;;;;19.82;48.36;101768.19;4854500;29;2337;-64
2023/09/24 02:31:31;;;;;;;;;;;;;;;19.82;48.16;101779.69;4837555;29;6269;-64
2023/09/24 02:33:58;;;;;;;;;;;;;;;19.80;47.93;101770.94;4854056;29;2507;-64
2023/09/24 02:36:24;;;;;;;;;;;;;;;19.79;47.92;101775.16;4857242;29;2333;-64
2023/09/24 02:38:51;;;;;;;;;;;;;;;19.79;48.08;101780.91;4856471;29;2318;-63
2023/09/24 02:41:17;;;;;;;;;;;;;;;19.78;47.97;101773.69;4855291;29;2352;-64
2023/09/24 02:43:44;;;;;;;;;;;;;;;19.78;47.96;101776.56;4854610;29;2492;-64
2023/09/24 02:46:11;;;;;;;;;;;;;;;19.77;48.20;101772.16;4856611;29;2234;-64
2023/09/24 02:48:39;;;;;;;;;;;;;;;19.75;48.11;101781.44;4837034;29;2359;-64
2023/09/24 02:51:08;;;;;;;;;;;;;;;19.75;48.00;101783.56;4856061;29;2369;-63
2023/09/24 02:53:35;;;;;;;;;;;;;;;19.75;47.92;101789.31;4851448;29;2389;-64
2023/09/24 02:56:04;;;;;;;;;;;;;;;19.74;48.17;101802.91;4839974;29;2309;-63
2023/09/24 02:58:30;;;;;;;;;;;;;;;19.77;48.00;101800.91;4835628;29;2322;-64
2023/09/24 03:00:57;;;;;;;;;;;;;;;19.76;48.07;101794.41;4844148;29;6163;-63
2023/09/24 03:03:24;;;;;;;;;;;;;;;19.76;48.28;101794.41;4838131;29;2364;-64
2023/09/24 03:05:51;;;;;;;;;;;;;;;19.79;48.33;101798.16;4849045;29;2525;-64
2023/09/24 03:08:18;;;;;;;;;;;;;;;19.78;48.57;101796.69;4836005;29;2267;-64
2023/09/24 03:10:45;;;;;;;;;;;;;;;19.77;48.65;101804.56;4855178;29;2321;-64
2023/09/24 03:13:12;;;;;;;;;;;;;;;19.79;48.67;101810.44;4840362;29;2284;-63
2023/09/24 03:15:38;;;;;;;;;;;;;;;19.81;48.44;101818.41;4853964;29;2298;-63
2023/09/24 03:18:05;;;;;;;;;;;;;;;19.80;48.89;101803.31;4856282;29;2262;-64
2023/09/24 03:20:31;;;;;;;;;;;;;;;19.80;49.16;101811.19;4855610;29;2316;-64
2023/09/24 03:23:02;;;;;;;;;;;;;;;19.81;48.92;101813.44;4852639;29;2311;-63
2023/09/24 03:25:29;;;;;;;;;;;;;;;19.84;49.16;101814.31;4855292;29;2380;-63
2023/09/24 03:27:56;;;;;;;;;;;;;;;19.87;49.24;101816.69;4853801;29;2556;-63
2023/09/24 03:30:23;;;;;;;;;;;;;;;19.86;49.33;101832.44;4838488;29;6105;-63
2023/09/24 03:32:51;;;;;;;;;;;;;;;19.86;49.75;101834.56;4854259;29;2250;-64
2023/09/24 03:35:23;;;;;;;;;;;;;;;19.86;49.94;101843.19;4842622;29;2392;-64
2023/09/24 03:37:49;;;;;;;;;;;;;;;19.87;50.13;101833.94;4837467;29;2315;-63
2023/09/24 03:40:17;;;;;;;;;;;;;;;19.90;50.05;101840.56;4835607;29;2484;-64
2023/09/24 03:42:44;;;;;;;;;;;;;;;19.96;50.22;101840.94;4850002;29;2577;-64
2023/09/24 03:45:11;;;;;;;;;;;;;;;19.98;50.13;101838.22;4853019;29;2427;-64
2023/09/24 03:47:38;;;;;;;;;;;;;;;19.95;50.38;101850.97;4854191;29;2690;-63
2023/09/24 03:50:05;;;;;;;;;;;;;;;19.97;50.45;101853.94;4837888;29;2548;-64
2023/09/24 03:52:32;;;;;;;;;;;;;;;19.94;50.90;101860.94;4854006;29;2243;-64
2023/09/24 03:54:59;;;;;;;;;;;;;;;19.93;51.05;101859.47;4852575;29;2409;-64
2023/09/24 03:57:27;;;;;;;;;;;;;;;19.90;51.30;101862.81;4853909;29;2478;-64
2023/09/24 03:59:54;;;;;;;;;;;;;;;19.88;51.37;101855.56;4855667;29;2265;-63
2023/09/24 04:02:22;;;;;;;;;;;;;;;19.90;51.34;101865.69;4852566;29;6396;-64
2023/09/24 04:04:48;;;;;;;;;;;;;;;19.90;51.44;101859.94;4855179;29;2257;-64
2023/09/24 04:07:15;;;;;;;;;;;;;;;19.91;51.37;101879.44;4818029;29;2511;-64
2023/09/24 04:09:43;;;;;;;;;;;;;;;19.90;51.48;101872.19;4837170;29;2396;-64
2023/09/24 04:12:09;;;;;;;;;;;;;;;19.91;51.61;101878.69;4855073;29;2371;-63
2023/09/24 04:14:36;;;;;;;;;;;;;;;19.90;51.93;101877.94;4854875;29;2364;-64
2023/09/24 04:17:02;;;;;;;;;;;;;;;19.92;51.84;101883.81;4838547;29;2417;-64
2023/09/24 04:19:30;;;;;;;;;;;;;;;19.92;52.06;101886.69;4853955;29;2254;-64
2023/09/24 04:21:57;;;;;;;;;;;;;;;19.94;51.95;101889.69;4854183;29;2247;-64
2023/09/24 04:24:23;;;;;;;;;;;;;;;19.96;52.04;101891.97;4854758;29;2524;-63
2023/09/24 04:26:53;;;;;;;;;;;;;;;19.96;51.75;101903.47;4852320;29;2500;-64
2023/09/24 04:29:19;;;;;;;;;;;;;;;19.98;51.88;101906.47;4854479;29;2364;-64
2023/09/24 04:31:45;;;;;;;;;;;;;;;19.99;52.04;101907.97;4852307;29;6192;-64
2023/09/24 04:34:12;;;;;;;;;;;;;;;19.93;52.37;101916.94;4854527;29;2318;-64
2023/09/24 04:36:40;;;;;;;;;;;;;;;19.86;52.66;101929.44;4852621;29;2520;-64
2023/09/24 04:39:09;;;;;;;;;;;;;;;19.93;52.42;101922.69;4855641;29;2392;-64
2023/09/24 04:41:37;;;;;;;;;;;;;;;19.99;52.43;101919.47;4834362;29;2347;-64
2023/09/24 04:44:03;;;;;;;;;;;;;;;19.97;52.58;101922.94;4853160;29;2299;-64
2023/09/24 04:46:30;;;;;;;;;;;;;;;19.95;52.63;101931.47;4850804;29;2428;-64
2023/09/24 04:48:56;;;;;;;;;;;;;;;20.01;52.32;101931.84;4854087;29;2255;-64
2023/09/24 04:51:23;;;;;;;;;;;;;;;20.00;52.31;101941.09;4851002;29;2467;-63
2023/09/24 04:53:49;;;;;;;;;;;;;;;19.98;52.48;101935.22;4853007;29;2438;-64
2023/09/24 04:56:16;;;;;;;;;;;;;;;19.97;52.69;101950.94;4852800;29;2475;-64
2023/09/24 04:58:43;;;;;;;;;;;;;;;19.96;52.96;101955.94;4853476;29;2267;-65
2023/09/24 05:01:09;;;;;;;;;;;;;;;19.99;53.39;101963.31;4854234;29;6127;-68
2023/09/24 05:03:36;;;;;;;;;;;;;;;20.15;52.55;101971.50;4853672;29;2351;-68
2023/09/24 05:06:05;;;;;;;;;;;;;;;20.22;52.23;101976.28;4836147;29;2416;-68
2023/09/24 05:08:34;;;;;;;;;;;;;;;20.26;52.27;101982.31;4854634;29;2261;-67
2023/09/24 05:11:02;;;;;;;;;;;;;;;20.27;52.43;101992.44;4853219;29;2440;-68
2023/09/24 05:13:29;;;;;;;;;;;;;;;20.27;52.35;101989.56;4853781;29;2215;-68
2023/09/24 05:15:59;;;;;;;;;;;;;;;20.28;52.57;101996.81;4852351;29;2417;-68
2023/09/24 05:18:26;;;;;;;;;;;;;;;20.28;52.50;102000.44;4853769;29;2431;-68
2023/09/24 05:20:53;;;;;;;;;;;;;;;20.29;52.50;102004.84;4853986;29;2232;-69
2023/09/24 05:23:23;;;;;;;;;;;;;;;20.32;52.13;102016.47;4854664;29;2327;-68
2023/09/24 05:25:50;;;;;;;;;;;;;;;20.32;52.28;102022.97;4839485;29;2492;-69
2023/09/24 05:28:17;;;;;;;;;;;;;;;20.32;52.37;102013.59;4852056;29;2246;-69
2023/09/24 05:30:50;;;;;;;;;;;;;;;20.34;52.35;102019.47;4853819;29;6273;-68
2023/09/24 05:33:17;;;;;;;;;;;;;;;20.33;52.25;102018.72;4858028;29;2305;-69
2023/09/24 05:35:43;;;;;;;;;;;;;;;20.33;52.29;102015.84;4857590;29;2440;-68
2023/09/24 05:38:10;;;;;;;;;;;;;;;20.35;52.29;102023.88;4856183;29;2284;-69
2023/09/24 05:40:39;;;;;;;;;;;;;;;20.35;52.25;102030.38;4857372;29;2227;-69
2023/09/24 05:43:05;;;;;;;;;;;;;;;20.36;52.35;102028.97;4844800;29;2287;-68
2023/09/24 05:45:31;;;;;;;;;;;;;;;20.36;52.43;102028.97;4856677;29;2530;-69
2023/09/24 05:47:58;;;;;;;;;;;;;;;20.36;52.34;102037.63;4856573;29;2469;-69
2023/09/24 05:50:25;;;;;;;;;;;;;;;20.38;52.22;102046.38;4855984;29;2354;-68
2023/09/24 05:52:51;;;;;;;;;;;;;;;20.39;52.34;102052.91;4856554;29;2290;-68
2023/09/24 05:55:17;;;;;;;;;;;;;;;20.39;52.29;102059.41;4856645;29;2305;-69
2023/09/24 05:57:44;;;;;;;;;;;;;;;20.39;52.38;102059.41;4852197;29;2511;-68
2023/09/24 06:00:11;;;;;;;;;;;;;;;20.39;52.57;102059.41;4853224;29;6372;-68
2023/09/24 06:02:38;;;;;;;;;;;;;;;20.39;52.49;102065.16;4849260;29;2482;-69
2023/09/24 06:05:09;;;;;;;;;;;;;;;20.40;52.38;102066.66;4853770;29;2441;-69
2023/09/24 06:07:35;;;;;;;;;;;;;;;20.41;52.48;102073.16;4856774;29;2293;-69
2023/09/24 06:10:05;;;;;;;;;;;;;;;20.41;52.53;102073.94;4855435;29;2362;-68
2023/09/24 06:12:32;;;;;;;;;;;;;;;20.41;52.57;102073.16;4851371;29;2640;-69
2023/09/24 06:14:59;;;;;;;;;;;;;;;20.42;52.49;102074.66;4854071;29;2274;-68
2023/09/24 06:17:25;;;;;;;;;;;;;;;20.42;52.69;102081.16;4843235;29;2473;-69
2023/09/24 06:19:55;;;;;;;;;;;;;;;20.43;52.54;102084.78;4855305;29;2212;-68
2023/09/24 06:22:22;;;;;;;;;;;;;;;20.42;52.40;102089.81;4856219;29;2426;-68
2023/09/24 06:24:50;;;;;;;;;;;;;;;20.44;52.53;102101.44;4856120;29;2283;-69
2023/09/24 06:27:17;;;;;;;;;;;;;;;20.43;52.62;102099.97;4853486;29;2632;-69
2023/09/24 06:29:43;;;;;;;;;;;;;;;20.44;52.78;102107.22;4854830;29;2350;-69
2023/09/24 06:32:09;;;;;;;;;;;;;;;20.46;52.80;102115.22;4835149;29;6159;-68
2023/09/24 06:34:37;;;;;;;;;;;;;;;20.44;52.58;102106.47;4853116;29;2478;-69
2023/09/24 06:37:04;;;;;;;;;;;;;;;20.45;52.75;102108.69;4854825;29;2455;-69
2023/09/24 06:39:31;;;;;;;;;;;;;;;20.45;52.83;102111.56;4853355;29;2439;-69
2023/09/24 06:41:58;;;;;;;;;;;;;;;20.45;52.67;102114.44;4853918;29;2451;-69
2023/09/24 06:44:25;;;;;;;;;;;;;;;20.45;52.82;102111.56;4851267;29;2682;-68
2023/09/24 06:46:54;;;;;;;;;;;;;;;20.46;52.67;102109.47;4856313;29;2285;-69
2023/09/24 06:49:21;;;;;;;;;;;;;;;20.46;52.58;102115.22;4854825;29;2268;-69
2023/09/24 06:51:47;;;;;;;;;;;;;;;20.47;52.61;102116.72;4855165;29;2368;-69
2023/09/24 06:54:14;;;;;;;;;;;;;;;20.47;52.66;102123.22;4854435;29;2638;-69
2023/09/24 06:56:40;;;;;;;;;;;;;;;20.47;52.66;102128.97;4853789;29;2304;-68
2023/09/24 06:59:09;;;;;;;;;;;;;;;20.47;52.65;102134.72;4852938;29;2254;-69
2023/09/24 07:01:36;;;;;;;;;;;;;;;20.47;52.75;102139.75;4855579;29;6088;-69
2023/09/24 07:04:04;;;;;;;;;;;;;;;20.48;52.86;102141.25;4854171;29;2341;-69
2023/09/24 07:06:31;;;;;;;;;;;;;;;20.47;52.75;102140.47;4843948;29;2343;-69
2023/09/24 07:08:58;;;;;;;;;;;;;;;20.48;52.96;102142.00;4854000;29;2412;-69
2023/09/24 07:11:30;;;;;;;;;;;;;;;20.48;52.96;102150.63;4854595;29;2571;-69
2023/09/24 07:13:57;;;;;;;;;;;;;;;20.49;52.74;102148.50;4857110;29;2505;-69
2023/09/24 07:16:23;;;;;;;;;;;;;;;20.49;52.90;102160.03;4852363;29;2393;-69
2023/09/24 07:18:50;;;;;;;;;;;;;;;20.49;52.78;102166.53;4858398;29;2315;-68
2023/09/24 07:21:20;;;;;;;;;;;;;;;20.49;52.70;102169.41;4858365;29;1618;-69
2023/09/24 07:24:01;;;;;;;;;;;;;;;20.49;52.96;102178.03;4856376;29;2646;-69
2023/09/24 07:26:28;;;;;;;;;;;;;;;20.50;52.99;102173.03;4850647;29;2405;-69
2023/09/24 07:28:54;;;;;;;;;;;;;;;20.50;52.91;102179.56;4839160;29;2413;-68
2023/09/24 07:31:22;;;;;;;;;;;;;;;20.49;52.98;102189.53;4854818;29;6591;-68
2023/09/24 07:33:52;;;;;;;;;;;;;;;20.50;52.88;102185.31;4856974;29;2381;-68
2023/09/24 07:36:19;;;;;;;;;;;;;;;20.53;53.03;102194.09;4856062;29;2490;-68
2023/09/24 07:39:02;;;;;;;;;;;;;;;20.51;52.85;102191.81;4851917;29;2588;-68
2023/09/24 07:41:28;;;;;;;;;;;;;;;20.51;52.98;102181.03;4853050;29;2474;-68
2023/09/24 07:43:55;;;;;;;;;;;;;;;20.51;53.05;102186.81;4855332;29;2582;-68
2023/09/24 07:46:21;;;;;;;;;;;;;;;20.52;52.73;102187.56;4853613;29;2282;-68
2023/09/24 07:48:48;;;;;;;;;;;;;;;20.53;53.11;102194.09;4852172;29;2409;-68
2023/09/24 07:51:16;;;;;;;;;;;;;;;20.53;52.97;102185.44;4856410;29;2431;-68
2023/09/24 07:53:44;;;;;;;;;;;;;;;20.53;53.04;102188.31;4855155;29;2224;-68
2023/09/24 07:56:11;;;;;;;;;;;;;;;20.56;52.83;102187.06;4837359;29;2536;-68
2023/09/24 07:58:38;;;;;;;;;;;;;;;20.56;53.01;102187.06;4839948;29;2316;-62
2023/09/24 08:01:06;;;;;;;;;;;;;;;20.56;52.69;102192.84;4855462;29;6202;-62
2023/09/24 08:03:32;;;;;;;;;;;;;;;20.55;52.87;102194.19;4854854;29;2332;-62
2023/09/24 08:05:59;;;;;;;;;;;;;;;20.56;53.05;102201.47;4855210;29;2558;-62
2023/09/24 08:08:26;;;;;;;;;;;;;;;20.53;53.10;102197.72;4856665;29;2322;-62
2023/09/24 08:11:12;;;;;;;;;;;;;;;20.55;53.07;102205.69;4857134;29;2050;-62
2023/09/24 08:13:39;;;;;;;;;;;;;;;20.55;52.84;102215.13;4853331;29;2518;-62
2023/09/24 08:16:05;;;;;;;;;;;;;;;20.54;53.09;102225.09;4851304;29;2389;-62
2023/09/24 08:18:32;;;;;;;;;;;;;;;20.51;53.58;102224.22;4854771;29;2276;-62
2023/09/24 08:20:59;;;;;;;;;;;;;;;20.46;53.86;102228.19;4854428;29;2264;-61
2023/09/24 08:23:25;;;;;;;;;;;;;;;19.95;54.46;102230.47;4853814;29;2341;-60
2023/09/24 08:25:52;;;;;;;;;;;;;;;19.36;55.68;102234.88;4852270;29;2742;-59
2023/09/24 08:28:18;;;;;;;;;;;;;;;19.43;55.58;102222.44;4838305;29;2391;-60
2023/09/24 08:30:45;;;;;;;;;;;;;;;19.36;56.15;102223.38;4853455;29;6276;-60
2023/09/24 08:33:11;;;;;;;;;;;;;;;19.37;56.26;102224.88;4852144;29;2491;-61
2023/09/24 08:35:39;;;;;;;;;;;;;;;19.34;56.16;102234.72;4855658;29;2340;-60
2023/09/24 08:38:06;;;;;;;;;;;;;;;19.43;55.93;102226.06;4851733;29;2464;-59
2023/09/24 08:40:32;;;;;;;;;;;;;;;19.53;56.15;102231.78;4855096;29;2254;-60
2023/09/24 08:42:59;;;;;;;;;;;;;;;19.45;56.75;102243.47;4853875;29;2496;-59
2023/09/24 08:45:29;;;;;;;;;;;;;;;19.17;57.73;102227.81;4851129;29;2402;-60
2023/09/24 08:47:57;;;;;;;;;;;;;;;19.19;57.98;102242.28;4855231;29;2192;-60
2023/09/24 08:50:23;;;;;;;;;;;;;;;18.82;58.76;102239.59;4854064;29;2312;-60
2023/09/24 08:52:50;;;;;;;;;;;;;;;18.93;58.96;102246.09;4852648;29;2477;-60
2023/09/24 08:55:16;;;;;;;;;;;;;;;18.99;58.50;102238.69;4844477;29;2267;-60
2023/09/24 08:57:43;;;;;;;;;;;;;;;19.17;58.25;102236.41;4854572;29;2325;-60
2023/09/24 09:00:11;;;;;;;;;;;;;;;19.23;57.72;102251.19;4833323;29;6289;-60
2023/09/24 09:02:39;;;;;;;;;;;;;;;19.27;57.82;102245.00;4833193;29;2394;-60
2023/09/24 09:05:09;;;;;;;;;;;;;;;19.35;57.81;102244.84;4855420;29;2609;-64
2023/09/24 09:07:35;;;;;;;;;;;;;;;19.31;58.06;102244.53;4857443;29;2348;-60
2023/09/24 09:10:04;;;;;;;;;;;;;;;19.31;58.07;102244.53;4858279;29;2531;-61
2023/09/24 09:12:31;;;;;;;;;;;;;;;19.31;57.94;102245.31;4857437;29;2738;-60
2023/09/24 09:14:57;;;;;;;;;;;;;;;19.27;57.69;102250.75;4858539;29;2523;-60
2023/09/24 09:17:24;;;;;;;;;;;;;;;18.94;58.25;102242.59;4856383;29;2503;-60
2023/09/24 09:19:52;;;;;;;;;;;;;;;19.13;58.02;102253.34;4846894;29;2505;-60
2023/09/24 09:22:22;;;;;;;;;;;;;;;19.21;57.81;102245.31;4856463;29;2371;-60
2023/09/24 09:25:09;;;;;;;;;;;;;;;19.10;58.21;102251.66;4857407;29;2381;-60
2023/09/24 09:27:43;;;;;;;;;;;;;;;18.96;58.72;102251.38;4857741;29;2450;-60
2023/09/24 09:30:13;;;;;;;;;;;;;;;19.21;58.30;102253.91;4857181;29;6142;-60
2023/09/24 09:32:39;;;;;;;;;;;;;;;19.09;58.34;102253.03;4855508;29;2514;-60
2023/09/24 09:35:06;;;;;;;;;;;;;;;18.84;58.47;102251.22;4856619;29;2396;-60
2023/09/24 09:37:32;;;;;;;;;;;;;;;18.91;58.28;102243.06;4854530;29;2454;-60
2023/09/24 09:40:00;;;;;;;;;;;;;;;19.15;57.96;102244.88;4855292;29;2434;-60
2023/09/24 09:42:29;;;;;;;;;;;;;;;19.24;57.25;102246.97;4840177;29;2366;-60
2023/09/24 09:44:56;;;;;;;;;;;;;;;19.30;57.38;102243.03;4840848;29;2326;-60
2023/09/24 09:47:22;;;;;;;;;;;;;;;19.24;56.89;102241.25;4855313;29;2580;-60
2023/09/24 09:49:56;;;;;;;;;;;;;;;19.11;57.39;102243.81;4855088;29;2343;-60
2023/09/24 09:52:23;;;;;;;;;;;;;;;19.25;57.31;102237.00;4852748;29;2528;-60
2023/09/24 09:54:50;;;;;;;;;;;;;;;19.46;57.06;102238.47;4841716;29;2418;-60
2023/09/24 09:57:16;;;;;;;;;;;;;;;19.44;57.03;102233.31;4840655;29;2636;-60
2023/09/24 09:59:43;;;;;;;;;;;;;;;19.10;57.89;102225.81;4857551;29;1840;-60
2023/09/24 10:02:10;;;;;;;;;;;;;;;19.21;57.96;102225.19;4853392;29;6457;-60
2023/09/24 10:04:36;;;;;;;;;;;;;;;19.18;57.86;102231.44;4854761;29;2515;-60
2023/09/24 10:07:03;;;;;;;;;;;;;;;18.98;58.11;102230.69;4840770;29;2681;-60
2023/09/24 10:09:29;;;;;;;;;;;;;;;19.03;57.46;102233.25;4857596;29;2577;-60
2023/09/24 10:11:56;;;;;;;;;;;;;;;19.12;57.30;102237.47;4854419;29;2588;-60
2023/09/24 10:14:42;;;;;;;;;;;;;;;19.17;56.28;102239.28;4854212;29;2595;-60
2023/09/24 10:17:15;;;;;;;;;;;;;;;19.31;56.22;102239.56;4836850;29;2706;-60
2023/09/24 10:19:49;;;;;;;;;;;;;;;18.77;56.43;102242.78;4852969;29;2594;-60
2023/09/24 10:22:31;;;;;;;;;;;;;;;19.10;56.53;102230.81;4856464;29;2393;-60
2023/09/24 10:24:58;;;;;;;;;;;;;;;19.33;55.59;102236.81;4839153;29;2140;-60
2023/09/24 10:27:25;;;;;;;;;;;;;;;19.46;54.90;102238.47;4846264;29;2148;-60
2023/09/24 10:29:53;;;;;;;;;;;;;;;19.52;54.99;102233.16;4853426;29;2563;-60
2023/09/24 10:32:21;;;;;;;;;;;;;;;19.53;55.00;102231.03;4851979;29;6471;-60
2023/09/24 10:34:51;;;;;;;;;;;;;;;19.55;54.82;102229.06;4856671;29;2270;-60
2023/09/24 10:37:20;;;;;;;;;;;;;;;19.53;55.29;102231.78;4853106;29;2560;-60
2023/09/24 10:40:05;;;;;;;;;;;;;;;19.54;55.17;102227.56;4850876;29;2453;-60
2023/09/24 10:42:32;;;;;;;;;;;;;;;19.41;54.68;102236.66;4854226;29;2503;-60
2023/09/24 10:45:07;;;;;;;;;;;;;;;19.41;54.67;102231.69;4854293;29;2397;-61
2023/09/24 10:47:36;;;;;;;;;;;;;;;19.50;54.83;102230.16;4853861;29;2753;-60
2023/09/24 10:50:06;;;;;;;;;;;;;;;19.22;55.39;102232.47;4857054;29;2212;-61
2023/09/24 10:52:51;;;;;;;;;;;;;;;19.31;55.27;102238.78;4857018;29;2421;-60
2023/09/24 10:55:18;;;;;;;;;;;;;;;19.37;54.57;102230.63;4856381;29;2145;-60
2023/09/24 10:57:50;;;;;;;;;;;;;;;19.57;54.35;102237.09;4838261;29;2414;-60
2023/09/24 11:00:17;;;;;;;;;;;;;;;19.66;54.51;102233.41;4855814;29;6095;-60
2023/09/24 11:02:43;;;;;;;;;;;;;;;19.75;54.21;102234.78;4856317;29;2539;-60
2023/09/24 11:05:10;;;;;;;;;;;;;;;19.80;53.77;102236.56;4856041;29;2252;-61
2023/09/24 11:07:36;;;;;;;;;;;;;;;19.79;53.49;102235.06;4858375;29;2237;-60
2023/09/24 11:10:03;;;;;;;;;;;;;;;19.69;51.81;102231.47;4851578;29;2728;-59
2023/09/24 11:12:29;;;;;;;;;;;;;;;19.58;50.58;102236.47;4853112;29;2408;-66
2023/09/24 11:14:56;;;;;;;;;;;;;;;19.77;51.07;102237.78;4852830;29;2596;-61
2023/09/24 11:17:41;;;;;;;;;;;;;;;19.86;50.56;102240.63;4855542;29;2885;-58
2023/09/24 11:20:08;;;;;;;;;;;;;;;19.92;50.64;102230.94;4855250;29;2257;-60
2023/09/24 11:22:35;;;;;;;;;;;;;;;19.83;49.94;102229.59;4855334;29;2431;-61
2023/09/24 11:25:11;;;;;;;;;;;;;;;19.67;50.18;102229.91;4845646;29;2240;-61
2023/09/24 11:27:47;;;;;;;;;;;;;;;19.76;50.75;102239.16;4850047;29;2528;-67
2023/09/24 11:30:15;;;;;;;;;;;;;;;19.74;51.03;102236.13;4852862;29;6230;-62
2023/09/24 11:32:41;;;;;;;;;;;;;;;19.64;51.17;102239.78;4855580;29;2415;-62
2023/09/24 11:35:08;;;;;;;;;;;;;;;19.59;50.22;102232.22;4855833;29;2426;-63
2023/09/24 11:37:45;;;;;;;;;;;;;;;19.63;50.12;102241.16;4857036;29;2451;-60
2023/09/24 11:40:24;;;;;;;;;;;;;;;19.75;50.87;102237.66;4857810;29;2463;-61
2023/09/24 11:43:11;;;;;;;;;;;;;;;19.94;50.84;102236.81;4840119;29;2162;-61
2023/09/24 11:45:50;;;;;;;;;;;;;;;19.99;50.54;102230.72;4857908;29;1987;-61
2023/09/24 11:48:20;;;;;;;;;;;;;;;19.69;50.26;102237.22;4839613;29;1897;-64
2023/09/24 11:50:48;;;;;;;;;;;;;;;19.23;49.00;102239.72;4858188;29;1936;-63
2023/09/24 11:53:14;;;;;;;;;;;;;;;19.12;50.24;102237.47;4854337;29;1915;-64
2023/09/24 11:55:41;;;;;;;;;;;;;;;18.95;50.99;102231.91;4831050;29;2126;-63
2023/09/24 11:58:08;;;;;;;;;;;;;;;18.73;50.64;102228.84;4855871;29;1931;-63
2023/09/24 12:00:35;;;;;;;;;;;;;;;18.67;49.22;102231.25;4856885;29;6306;-65
2023/09/24 12:03:03;;;;;;;;;;;;;;;18.92;49.25;102233.09;4850446;29;1876;-64
2023/09/24 12:05:30;;;;;;;;;;;;;;;19.00;48.60;102233.72;4856642;29;1776;-64
2023/09/24 12:07:59;;;;;;;;;;;;;;;19.33;48.92;102236.06;4857566;29;1695;-63
2023/09/24 12:10:26;;;;;;;;;;;;;;;19.12;49.93;102234.59;4857040;29;1880;-64
2023/09/24 12:12:52;;;;;;;;;;;;;;;19.26;50.92;102232.00;4857048;29;1977;-64
2023/09/24 12:15:19;;;;;;;;;;;;;;;19.50;50.24;102224.41;4857225;29;1935;-64
2023/09/24 12:17:48;;;;;;;;;;;;;;;19.02;51.27;102230.97;4856212;29;1712;-65
2023/09/24 12:20:14;;;;;;;;;;;;;;;18.93;50.87;102223.13;4857669;29;1665;-64
2023/09/24 12:22:41;;;;;;;;;;;;;;;18.84;49.41;102228.25;4856940;29;1888;-63
2023/09/24 12:25:08;;;;;;;;;;;;;;;19.25;50.42;102231.25;4856419;29;1725;-64
2023/09/24 12:27:36;;;;;;;;;;;;;;;19.56;49.89;102224.06;4849268;29;1793;-64
2023/09/24 12:30:04;;;;;;;;;;;;;;;19.30;50.53;102232.28;4857111;29;1989;-63
2023/09/24 12:32:34;;;;;;;;;;;;;;;20.01;50.60;102228.00;4855053;29;8100;-61
2023/09/24 12:35:01;;;;;;;;;;;;;;;20.77;49.43;102232.38;4856471;29;1871;-61
2023/09/24 12:37:28;;;;;;;;;;;;;;;21.05;48.86;102225.63;4857774;29;1625;-61
2023/09/24 12:39:58;;;;;;;;;;;;;;;21.21;48.92;102231.69;4855979;29;1729;-62
2023/09/24 12:42:31;;;;;;;;;;;;;;;21.31;48.44;102234.47;4859986;29;1862;-61
2023/09/24 12:44:58;;;;;;;;;;;;;;;21.43;48.58;102243.16;4860667;29;1848;-61
2023/09/24 12:47:25;;;;;;;;;;;;;;;21.45;48.62;102238.28;4860689;29;1629;-60
2023/09/24 12:49:55;;;;;;;;;;;;;;;21.52;48.58;102240.16;4859753;29;2243;-61
2023/09/24 12:52:23;;;;;;;;;;;;;;;21.49;48.59;102243.56;4857097;29;2439;-61